Time;durP1;ratioP1;P1;durP2;ratioP2;P2;SDS_P1;SDS_P2;PMS_P1;PMS_P2;Temp;Humidity;BMP_temperature;BMP_pressure;BME280_temperature;BME280_humidity;BME280_pressure;Samples;Min_cycle;Max_cycle;Signal;HPM_P1;HPM_P2
2022/05/09 00:01:39;;;;;;;26.40;6.90;;;;;;;-149.78;100.00;50260.22;5070178;28;20047;-72
2022/05/09 00:04:05;;;;;;;17.23;6.47;;;;;;;-149.78;100.00;50307.16;5073155;28;20093;-72
2022/05/09 00:06:30;;;;;;;15.15;6.43;;;;;;;-149.78;100.00;50311.06;5073475;28;20044;-72
2022/05/09 00:08:56;;;;;;;16.13;6.55;;;;;;;-149.78;100.00;50264.13;5073239;28;20491;-72
2022/05/09 00:11:22;;;;;;;21.55;6.85;;;;;;;-149.78;100.00;50287.59;5073546;28;20032;-72
2022/05/09 00:13:48;;;;;;;20.58;6.55;;;;;;;-149.78;100.00;50256.31;5055368;28;20043;-72
2022/05/09 00:16:13;;;;;;;17.05;6.18;;;;;;;-149.78;100.00;50264.13;5072147;28;20036;-72
2022/05/09 00:18:39;;;;;;;20.05;7.05;;;;;;;-149.78;100.00;50301.28;5073307;28;20048;-72
2022/05/09 00:21:05;;;;;;;19.65;6.65;;;;;;;-149.78;100.00;50291.50;5071817;28;20041;-72
2022/05/09 00:23:31;;;;;;;25.08;6.78;;;;;;;-149.78;100.00;50287.59;5077955;28;20088;-72
2022/05/09 00:25:57;;;;;;;16.10;6.93;;;;;;;-149.78;100.00;50291.50;5093300;28;20357;-72
2022/05/09 00:28:23;;;;;;;21.60;6.55;;;;;;;-149.78;100.00;50271.97;5092199;28;20032;-72
2022/05/09 00:30:49;;;;;;;16.70;6.50;;;;;;;-149.78;100.00;50228.94;5091981;28;20067;-72
2022/05/09 00:33:14;;;;;;;18.52;6.63;;;;;;;-149.78;100.00;50258.28;5058741;28;20062;-72
2022/05/09 00:35:44;;;;;;;15.77;6.30;;;;;;;-149.78;100.00;50287.59;5092998;28;20097;-72
2022/05/09 00:38:10;;;;;;;17.98;6.55;;;;;;;-149.78;100.00;50285.66;5093097;28;20085;-72
2022/05/09 00:40:39;;;;;;;18.98;6.20;;;;;;;-149.78;100.00;50307.16;5092888;28;20040;-71
2022/05/09 00:43:29;;;;;;;19.52;7.47;;;;;;;-149.78;100.00;50293.47;5074841;28;20036;-71
2022/05/09 00:45:54;;;;;;;18.33;7.20;;;;;;;-149.78;100.00;50303.25;5091684;28;20035;-71
2022/05/09 00:48:21;;;;;;;23.25;7.05;;;;;;;-149.78;100.00;50295.44;5092952;28;20043;-72
2022/05/09 00:50:47;;;;;;;29.27;8.57;;;;;;;-149.78;100.00;50273.91;5092830;28;20035;-71
2022/05/09 00:53:13;;;;;;;25.60;8.13;;;;;;;-149.78;100.00;50295.44;5074980;28;20032;-72
2022/05/09 00:55:47;;;;;;;23.33;8.00;;;;;;;-149.78;100.00;50244.59;5092778;28;20032;-72
2022/05/09 00:58:25;;;;;;;18.80;7.70;;;;;;;-149.78;100.00;50275.88;5091633;28;20038;-72
2022/05/09 01:00:52;;;;;;;21.63;8.25;;;;;;;-149.78;100.00;50285.66;5073425;28;20044;-71
2022/05/09 01:03:46;;;;;;;22.00;9.25;;;;;;;-149.78;100.00;50289.56;5054682;28;20040;-71
2022/05/09 01:06:13;;;;;;;24.95;9.65;;;;;;;-149.78;100.00;50291.50;5070006;28;20047;-71
2022/05/09 01:08:39;;;;;;;20.40;8.35;;;;;;;-149.78;100.00;50275.88;5070937;28;20036;-71
2022/05/09 01:11:11;;;;;;;20.45;8.93;;;;;;;-149.78;100.00;50287.59;5071339;28;20040;-71
2022/05/09 01:13:41;;;;;;;;;;;;;;;-149.78;100.00;50283.69;5073112;28;20462;-71
2022/05/09 01:16:08;;;;;;;18.48;7.60;;;;;;;-149.78;100.00;50260.22;5072523;28;20003;-71
2022/05/09 01:18:36;;;;;;;24.23;7.63;;;;;;;-149.78;100.00;50314.97;5072484;28;20028;-71
2022/05/09 01:21:27;;;;;;;19.35;7.40;;;;;;;-149.78;100.00;50295.44;5072392;28;20402;-71
2022/05/09 01:23:53;;;;;;;17.17;7.05;;;;;;;-149.78;100.00;50279.78;5072256;28;20451;-71
2022/05/09 01:26:18;;;;;;;19.73;6.75;;;;;;;-149.78;100.00;50252.41;5072521;28;20052;-72
2022/05/09 01:28:44;;;;;;;21.92;7.60;;;;;;;-149.78;100.00;50279.78;5045245;28;20052;-71
2022/05/09 01:31:14;;;;;;;21.92;6.75;;;;;;;-149.78;100.00;50279.78;5051120;28;20101;-71
2022/05/09 01:33:44;;;;;;;16.13;7.47;;;;;;;-149.78;100.00;50322.81;5072303;28;20459;-71
2022/05/09 01:36:14;;;;;;;18.42;7.32;;;;;;;-149.78;100.00;50303.25;5072121;28;20043;-72
2022/05/09 01:39:08;;;;;;;18.95;7.65;;;;;;;-149.78;100.00;50252.41;5072148;28;20542;-71
2022/05/09 01:41:37;;;;;;;24.77;6.72;;;;;;;-149.78;100.00;50303.25;5070710;28;20554;-71
2022/05/09 01:44:03;;;;;;;15.50;6.50;;;;;;;-149.78;100.00;50289.56;5069961;28;20112;-71
2022/05/09 01:46:30;;;;;;;14.45;6.43;;;;;;;-149.78;100.00;50240.66;5053477;28;20127;-71
2022/05/09 01:51:45;;;;;;;19.23;7.68;;;;;;;-149.78;100.00;50248.50;5065615;28;20492;-71
2022/05/09 01:54:11;;;;;;;20.73;8.43;;;;;;;-149.78;100.00;50299.34;5069791;28;20037;-71
2022/05/09 01:56:39;;;;;;;18.23;7.53;;;;;;;-149.78;100.00;50264.13;5070417;28;20777;-71
2022/05/09 01:59:07;;;;;;;23.27;8.32;;;;;;;-149.78;100.00;50283.69;5072083;28;20067;-71
2022/05/09 02:01:38;;;;;;;22.10;7.70;;;;;;;-149.78;100.00;50293.47;5070475;28;20032;-71
2022/05/09 02:04:04;;;;;;;20.25;8.40;;;;;;;-149.78;100.00;50264.13;5070785;28;20464;-71
2022/05/09 02:06:30;;;;;;;25.45;8.20;;;;;;;-149.78;100.00;50299.34;5064548;28;20028;-71
2022/05/09 02:08:56;;;;;;;21.58;8.50;;;;;;;-149.78;100.00;50287.59;5059969;28;20044;-73
2022/05/09 02:11:21;;;;;;;22.20;8.52;;;;;;;-149.78;100.00;50307.16;5081443;28;20039;-71
2022/05/09 02:13:47;;;;;;;24.90;9.35;;;;;;;-149.78;100.00;50277.81;5054170;28;20123;-71
2022/05/09 02:16:13;;;;;;;22.73;8.43;;;;;;;-149.78;100.00;50293.47;5054024;28;20060;-71
2022/05/09 02:18:39;;;;;;;24.95;8.88;;;;;;;-149.78;100.00;50271.97;5070948;28;20036;-71
2022/05/09 02:21:04;;;;;;;25.08;9.25;;;;;;;-149.78;100.00;50285.66;5070587;28;20040;-71
2022/05/09 02:23:31;;;;;;;30.13;9.30;;;;;;;-149.78;100.00;50248.50;5070630;28;20097;-71
2022/05/09 02:25:56;;;;;;;21.95;8.95;;;;;;;-149.78;100.00;50287.59;5077336;28;20517;-71
2022/05/09 02:28:22;;;;;;;22.48;7.80;;;;;;;-149.78;100.00;50277.81;5090877;28;20040;-71
2022/05/09 02:30:48;;;;;;;25.25;8.85;;;;;;;-149.78;100.00;50342.38;5092141;28;20058;-71
2022/05/09 02:33:14;;;;;;;20.65;8.55;;;;;;;-149.78;100.00;50279.78;5090594;28;20123;-71
2022/05/09 02:35:40;;;;;;;24.67;8.65;;;;;;;-149.78;100.00;50250.44;5080985;28;20345;-71
2022/05/09 02:38:06;;;;;;;22.48;8.73;;;;;;;-149.78;100.00;50268.03;5071811;28;20032;-71
2022/05/09 02:40:36;;;;;;;21.80;7.65;;;;;;;-149.78;100.00;50303.25;5062350;28;20560;-72
2022/05/09 02:43:02;;;;;;;26.45;8.05;;;;;;;-149.78;100.00;50271.97;5071505;28;20094;-71
2022/05/09 02:45:28;;;;;;;18.33;7.60;;;;;;;-149.78;100.00;50291.50;5071035;28;20124;-71
2022/05/09 02:47:55;;;;;;;22.13;7.57;;;;;;;-149.78;100.00;50295.44;5068912;28;20032;-71
2022/05/09 02:50:23;;;;;;;25.85;8.18;;;;;;;-149.78;100.00;50305.22;5071495;28;20066;-71
2022/05/09 02:52:50;;;;;;;19.42;7.57;;;;;;;-149.78;100.00;50268.03;5070217;28;20033;-71
2022/05/09 02:55:18;;;;;;;20.77;7.45;;;;;;;-149.78;100.00;50268.03;5071355;28;20039;-71
2022/05/09 02:57:44;;;;;;;20.85;7.47;;;;;;;-149.78;100.00;50295.44;5070433;28;20033;-71
2022/05/09 03:00:22;;;;;;;20.42;8.55;;;;;;;-149.78;100.00;50283.69;5072582;28;20066;-71
2022/05/09 03:05:35;;;;;;;22.42;7.53;;;;;;;-149.78;100.00;50268.03;5073403;28;20043;-72
2022/05/09 03:08:01;;;;;;;19.20;7.22;;;;;;;-149.78;100.00;50320.84;5075169;28;20075;-71
2022/05/09 03:10:28;;;;;;;35.97;8.20;;;;;;;-149.78;100.00;50275.88;5073751;28;20060;-71
2022/05/09 03:12:59;;;;;;;21.80;7.40;;;;;;;-149.78;100.00;50314.97;5073948;28;20399;-71
2022/05/09 03:15:26;;;;;;;15.93;7.38;;;;;;;-149.78;100.00;50291.50;5073599;28;20116;-71
2022/05/09 03:17:52;;;;;;;15.38;6.97;;;;;;;-149.78;100.00;50268.03;5073635;28;20086;-71
2022/05/09 03:20:18;;;;;;;20.33;7.47;;;;;;;-149.78;100.00;50307.16;5074789;28;20487;-71
2022/05/09 03:22:44;;;;;;;19.95;7.22;;;;;;;-149.78;100.00;50295.44;5074703;28;20042;-71
2022/05/09 03:25:11;;;;;;;17.67;7.13;;;;;;;-149.78;100.00;50303.25;5073606;28;20498;-71
2022/05/09 03:27:38;;;;;;;17.55;7.10;;;;;;;-149.78;100.00;50295.44;5073324;28;20033;-70
2022/05/09 03:30:06;;;;;;;19.65;7.10;;;;;;;-149.78;100.00;50281.75;5073473;28;20037;-70
2022/05/09 03:32:31;;;;;;;17.58;7.13;;;;;;;-149.78;100.00;50260.22;5074254;28;20033;-70
2022/05/09 03:34:57;;;;;;;22.17;7.78;;;;;;;-149.78;100.00;50291.50;5055527;28;20063;-71
2022/05/09 03:37:23;;;;;;;22.33;7.40;;;;;;;-149.78;100.00;50287.59;5054986;28;20067;-70
2022/05/09 03:39:48;;;;;;;15.32;7.43;;;;;;;-149.78;100.00;50271.97;5072869;28;20384;-70
2022/05/09 03:42:14;;;;;;;21.05;7.40;;;;;;;-149.78;100.00;50301.28;5072735;28;20039;-70
2022/05/09 03:44:40;;;;;;;19.67;7.32;;;;;;;-149.78;100.00;50299.34;5070863;28;20417;-70
2022/05/09 03:47:05;;;;;;;19.83;7.45;;;;;;;-149.78;100.00;50271.97;5071653;28;20037;-70
2022/05/09 03:49:32;;;;;;;18.67;7.75;;;;;;;-149.78;100.00;50311.06;5072863;28;20647;-70
2022/05/09 03:51:57;;;;;;;21.08;8.00;;;;;;;-149.78;100.00;50250.44;5072899;28;20067;-70
2022/05/09 03:54:23;;;;;;;20.60;7.43;;;;;;;-149.78;100.00;50281.75;5072160;28;20523;-70
2022/05/09 03:56:49;;;;;;;18.63;7.95;;;;;;;-149.78;100.00;50311.06;5072459;28;20051;-70
2022/05/09 03:59:15;;;;;;;20.27;7.65;;;;;;;-149.78;100.00;50289.56;5073608;28;20040;-71
2022/05/09 04:01:42;;;;;;;21.17;6.90;;;;;;;-149.78;100.00;50283.69;5039107;28;20495;-70
2022/05/09 04:04:08;;;;;;;23.45;8.20;;;;;;;-149.78;100.00;50268.03;5072852;28;20468;-70
2022/05/09 04:06:35;;;;;;;19.95;7.85;;;;;;;-149.78;100.00;50299.34;5051146;28;20040;-71
2022/05/09 04:09:00;;;;;;;21.80;7.53;;;;;;;-149.78;100.00;50314.97;5053638;28;20484;-71
2022/05/09 04:11:26;;;;;;;18.83;7.45;;;;;;;-149.78;100.00;50295.44;5071045;28;20039;-70
2022/05/09 04:13:52;;;;;;;21.92;7.40;;;;;;;-149.78;100.00;50334.53;5072394;28;20045;-70
2022/05/09 04:19:02;;;;;;;14.25;7.20;;;;;;;-149.78;100.00;50287.59;5072636;28;20494;-70
2022/05/09 04:21:28;;;;;;;18.65;7.78;;;;;;;-149.78;100.00;50299.34;5073515;28;20626;-70
2022/05/09 04:23:58;;;;;;;16.02;7.53;;;;;;;-149.78;100.00;50311.06;5073488;28;20234;-70
2022/05/09 04:26:31;;;;;;;18.65;8.57;;;;;;;-149.78;100.00;50268.03;5073154;28;20040;-70
2022/05/09 04:28:59;;;;;;;24.55;8.25;;;;;;;-149.78;100.00;50330.63;5055113;28;20044;-70
2022/05/09 04:31:24;;;;;;;19.90;7.68;;;;;;;-149.78;100.00;50264.13;5053315;28;20384;-70
2022/05/09 04:33:50;;;;;;;19.83;7.78;;;;;;;-149.78;100.00;50320.84;5053437;28;20121;-70
2022/05/09 04:36:15;;;;;;;17.67;7.28;;;;;;;-149.78;100.00;50324.75;5051824;28;20431;-70
2022/05/09 04:38:43;;;;;;;19.35;8.05;;;;;;;-149.78;100.00;50279.78;5053225;28;20061;-70
2022/05/09 04:41:10;;;;;;;14.85;6.35;;;;;;;-149.78;100.00;50291.50;5051668;28;20461;-70
2022/05/09 04:43:37;;;;;;;17.52;7.05;;;;;;;-149.78;100.00;50322.81;5051726;28;20151;-70
2022/05/09 04:46:04;;;;;;;19.42;8.15;;;;;;;-149.78;100.00;50311.06;5051888;28;20045;-70
2022/05/09 04:48:30;;;;;;;17.67;7.22;;;;;;;-149.78;100.00;50285.66;5035061;28;20037;-70
2022/05/09 04:50:56;;;;;;;17.33;7.30;;;;;;;-149.78;100.00;50303.25;5051699;28;20025;-70
2022/05/09 04:53:23;;;;;;;22.33;8.20;;;;;;;-149.78;100.00;50307.16;5052656;28;20065;-70
2022/05/09 04:55:48;;;;;;;18.27;7.07;;;;;;;-149.78;100.00;50293.47;5051653;28;20033;-70
2022/05/09 04:58:17;;;;;;;16.13;6.80;;;;;;;-149.78;100.00;50299.34;5051428;28;20090;-70
2022/05/09 05:00:43;;;;;;;20.92;7.32;;;;;;;-149.78;100.00;50291.50;5060604;28;20193;-70
2022/05/09 05:03:08;;;;;;;22.83;7.25;;;;;;;-149.78;100.00;50299.34;5042035;28;20108;-70
2022/05/09 05:05:34;;;;;;;18.95;7.45;;;;;;;-149.78;100.00;50279.78;5062101;28;20036;-70
2022/05/09 05:08:00;;;;;;;17.80;7.25;;;;;;;-149.78;100.00;50299.34;5053040;28;20047;-70
2022/05/09 05:10:27;;;;;;;17.85;6.78;;;;;;;-149.78;100.00;50307.16;5052509;28;20036;-70
2022/05/09 05:12:53;;;;;;;17.55;7.35;;;;;;;-149.78;100.00;50305.22;5034996;28;20129;-70
2022/05/09 05:15:19;;;;;;;15.43;6.82;;;;;;;-149.78;100.00;50330.63;5052460;28;20120;-70
2022/05/09 05:17:44;;;;;;;18.58;6.90;;;;;;;-149.78;100.00;50289.56;5051217;28;20040;-70
2022/05/09 05:20:14;;;;;;;16.40;6.97;;;;;;;-149.78;100.00;50260.22;5051104;28;20427;-70
2022/05/09 05:22:41;;;;;;;18.90;6.70;;;;;;;-149.78;100.00;50285.66;5055347;28;20025;-71
2022/05/09 05:25:11;;;;;;;13.35;6.05;;;;;;;-149.78;100.00;50275.88;5063986;28;20090;-70
2022/05/09 05:27:36;;;;;;;17.58;6.82;;;;;;;-149.78;100.00;50295.44;5059794;28;20033;-71
2022/05/09 05:30:04;;;;;;;18.38;6.85;;;;;;;-149.78;100.00;50277.81;5055393;28;20029;-70
2022/05/09 05:32:34;;;;;;;11.40;5.88;;;;;;;-149.78;100.00;50258.28;5063353;28;20025;-70
2022/05/09 05:35:00;;;;;;;11.95;6.28;;;;;;;-149.78;100.00;50299.34;5055828;28;20033;-71
2022/05/09 05:37:26;;;;;;;16.77;6.50;;;;;;;-149.78;100.00;50217.19;5050716;28;20039;-71
2022/05/09 05:39:52;;;;;;;21.23;7.15;;;;;;;-149.78;100.00;50260.22;5052061;28;20033;-71
2022/05/09 05:42:18;;;;;;;21.98;6.57;;;;;;;-149.78;100.00;50291.50;5033961;28;20059;-71
2022/05/09 05:44:47;;;;;;;16.90;6.18;;;;;;;-149.78;100.00;50260.22;5034551;28;20053;-71
2022/05/09 05:47:14;;;;;;;16.42;6.35;;;;;;;-149.78;100.00;50277.81;5073992;28;20040;-71
2022/05/09 05:49:41;;;;;;;12.32;5.78;;;;;;;-149.78;100.00;50264.13;5066194;28;20028;-71
2022/05/09 05:52:08;;;;;;;15.55;5.95;;;;;;;-149.78;100.00;50268.03;5051542;28;20032;-72
2022/05/09 05:54:44;;;;;;;14.85;5.47;;;;;;;-149.78;100.00;50266.09;5064241;28;20517;-72
2022/05/09 05:57:18;;;;;;;15.27;6.28;;;;;;;-149.78;100.00;50252.41;5062422;28;20036;-72
2022/05/09 05:59:52;;;;;;;10.93;5.47;;;;;;;-149.78;100.00;50289.56;5058094;28;20035;-72
2022/05/09 06:02:21;;;;;;;12.95;6.32;;;;;;;-149.78;100.00;50244.59;5067107;28;20103;-71
2022/05/09 06:04:47;;;;;;;19.65;6.07;;;;;;;-149.78;100.00;50236.75;5064360;28;20037;-70
2022/05/09 06:07:14;;;;;;;13.68;5.70;;;;;;;-149.78;100.00;50236.75;5051050;28;20484;-70
2022/05/09 06:09:41;;;;;;;13.00;4.88;;;;;;;-149.78;100.00;50256.31;5051470;28;20059;-73
2022/05/09 06:12:09;;;;;;;12.35;5.60;;;;;;;-149.78;100.00;50266.09;5051406;28;20021;-71
2022/05/09 06:14:37;;;;;;;11.32;5.43;;;;;;;-149.78;100.00;50279.78;5051742;28;20358;-68
2022/05/09 06:17:03;;;;;;;14.23;4.80;;;;;;;-149.78;100.00;50248.50;5050621;28;20056;-69
2022/05/09 06:19:29;;;;;;;10.00;4.55;;;;;;;-149.78;100.00;50236.75;5051598;28;20116;-71
2022/05/09 06:21:56;;;;;;;12.00;5.53;;;;;;;-149.78;100.00;50225.03;5049764;28;20047;-71
2022/05/09 06:24:21;;;;;;;12.02;5.10;;;;;;;-149.78;100.00;50285.66;5056324;28;20041;-71
2022/05/09 06:26:48;;;;;;;13.93;5.45;;;;;;;-149.78;100.00;50246.53;5057312;28;20029;-71
2022/05/09 06:29:14;;;;;;;13.02;5.00;;;;;;;-149.78;100.00;50201.56;5057836;28;20040;-72
2022/05/09 06:31:40;;;;;;;10.65;4.68;;;;;;;-149.78;100.00;50236.75;5041931;28;20391;-71
2022/05/09 06:34:11;;;;;;;10.55;4.78;;;;;;;-149.78;100.00;50236.75;5056121;28;20123;-71
2022/05/09 06:36:37;;;;;;;13.13;5.22;;;;;;;-149.78;100.00;50221.13;5063101;28;20032;-71
2022/05/09 06:39:05;;;;;;;10.88;4.80;;;;;;;-149.78;100.00;50217.19;5064894;28;20443;-71
2022/05/09 06:41:30;;;;;;;13.27;4.65;;;;;;;-149.78;100.00;50205.47;5068894;28;20041;-72
2022/05/09 06:43:56;;;;;;;14.15;5.47;;;;;;;-149.78;100.00;50154.63;5063080;28;20496;-71
2022/05/09 06:46:22;;;;;;;12.15;4.53;;;;;;;-149.78;100.00;50170.25;5059125;28;20429;-71
2022/05/09 06:48:48;;;;;;;11.32;4.68;;;;;;;-149.78;100.00;50131.16;5063476;28;20092;-71
2022/05/09 06:51:14;;;;;;;10.35;4.43;;;;;;;-149.78;100.00;50154.63;5054890;28;20090;-71
2022/05/09 06:53:40;;;;;;;11.68;4.53;;;;;;;-149.78;100.00;50138.97;5061210;28;20487;-71
2022/05/09 06:56:06;;;;;;;9.85;4.38;;;;;;;-149.78;100.00;50144.84;5056104;28;20029;-72
2022/05/09 06:58:32;;;;;;;14.57;4.97;;;;;;;-149.78;100.00;50127.25;5070922;28;20036;-71
2022/05/09 07:00:58;;;;;;;11.45;4.40;;;;;;;-149.78;100.00;50125.28;5074562;28;20480;-73
2022/05/09 07:03:25;;;;;;;12.63;5.20;;;;;;;-149.78;100.00;50092.03;5072609;28;20036;-71
2022/05/09 07:05:51;;;;;;;9.40;4.53;;;;;;;-149.78;100.00;50125.28;5058678;28;20487;-72
2022/05/09 07:08:23;;;;;;;9.85;4.40;;;;;;;-149.78;100.00;50111.59;5050542;28;20040;-70
2022/05/09 07:10:49;;;;;;;10.10;3.95;;;;;;;-149.78;100.00;50131.16;5065160;28;20024;-70
2022/05/09 07:13:15;;;;;;;12.40;4.57;;;;;;;-149.78;100.00;50119.41;5054798;28;20045;-70
2022/05/09 07:15:40;;;;;;;9.77;4.50;;;;;;;-149.78;100.00;50088.13;5061754;28;20039;-70
2022/05/09 07:18:06;;;;;;;11.10;4.68;;;;;;;-149.78;100.00;50084.22;5060004;28;20036;-70
2022/05/09 07:20:34;;;;;;;13.13;4.20;;;;;;;-149.78;100.00;50090.09;5059604;28;20033;-71
2022/05/09 07:23:09;;;;;;;9.05;4.50;;;;;;;-149.78;100.00;50050.97;5059619;28;20369;-71
2022/05/09 07:25:35;;;;;;;10.45;4.53;;;;;;;-149.78;100.00;50025.56;5058408;28;20097;-70
2022/05/09 07:28:00;;;;;;;11.45;4.25;;;;;;;-149.78;100.00;50009.91;5061161;28;20025;-69
2022/05/09 07:30:28;;;;;;;7.70;4.25;;;;;;;-149.78;100.00;49984.50;5053026;28;20364;-72
2022/05/09 07:32:54;;;;;;;11.57;4.22;;;;;;;-149.78;89.51;49996.22;5072069;28;20032;-71
2022/05/09 07:35:21;;;;;;;9.27;3.40;;;;;;;-149.78;70.99;49978.63;5072007;28;20036;-72
2022/05/09 07:37:50;;;;;;;9.50;3.65;;;;;;;-149.78;65.02;49974.72;5074426;28;20388;-72
2022/05/09 07:40:18;;;;;;;14.60;4.65;;;;;;;-149.78;62.30;49978.63;5072984;28;20357;-72
2022/05/09 07:42:45;;;;;;;8.40;4.10;;;;;;;-149.78;58.08;49955.16;5073856;28;20175;-72
2022/05/09 07:45:13;;;;;;;12.73;4.95;;;;;;;-149.78;61.16;49972.75;5072691;28;20365;-71
2022/05/09 07:47:39;;;;;;;10.15;5.38;;;;;;;-149.78;61.21;50017.72;5073634;28;20115;-72
2022/05/09 07:50:06;;;;;;;13.68;4.78;;;;;;;-149.78;61.19;49976.66;5074176;28;20472;-72
2022/05/09 07:52:33;;;;;;;11.68;5.07;;;;;;;-149.78;59.37;49962.97;5073452;28;20455;-72
2022/05/09 07:54:58;;;;;;;13.43;4.97;;;;;;;-149.78;59.07;50006.00;5055731;28;20032;-72
2022/05/09 07:57:25;;;;;;;10.40;4.30;;;;;;;-149.78;56.33;49998.19;5072301;28;20039;-72
2022/05/09 07:59:50;;;;;;;7.55;3.60;;;;;;;-149.78;57.16;49996.22;5073389;28;20110;-71
2022/05/09 08:02:16;;;;;;;7.45;3.03;;;;;;;-149.78;54.55;50006.00;5055233;28;20068;-71
2022/05/09 08:04:42;;;;;;;10.85;2.83;;;;;;;-149.78;55.32;50025.56;5073696;28;20044;-70
2022/05/09 08:07:08;;;;;;;5.18;2.90;;;;;;;-149.78;50.21;49982.53;5073815;28;20032;-71
2022/05/09 08:09:34;;;;;;;6.20;2.45;;;;;;;-149.78;48.16;49935.59;5073373;28;20037;-71
2022/05/09 08:12:00;;;;;;;6.45;2.40;;;;;;;-149.78;45.54;49939.50;5073698;28;20032;-71
2022/05/09 08:14:27;;;;;;;8.70;2.88;;;;;;;-149.78;44.14;49902.34;5073512;28;20024;-71
2022/05/09 08:16:54;;;;;;;4.78;2.50;;;;;;;-149.78;42.69;49894.53;5069799;28;20032;-71
2022/05/09 08:19:20;;;;;;;6.13;2.53;;;;;;;-149.78;40.01;49939.50;5052097;28;20036;-72
2022/05/09 08:21:50;;;;;;;5.28;2.22;;;;;;;-149.78;41.56;49962.97;5063416;28;20041;-71
2022/05/09 08:24:19;;;;;;;5.35;2.35;;;;;;;-149.78;42.94;49966.88;5065501;28;20052;-71
2022/05/09 08:26:44;;;;;;;6.20;2.22;;;;;;;-149.78;41.57;49966.88;5063812;28;20036;-71
2022/05/09 08:29:10;;;;;;;5.40;2.10;;;;;;;-149.78;42.62;49972.75;5071381;28;20127;-71
2022/05/09 08:31:36;;;;;;;4.88;2.67;;;;;;;-149.78;41.35;49945.38;5070426;28;20144;-72
2022/05/09 08:34:02;;;;;;;4.53;2.50;;;;;;;-149.78;41.88;49966.88;5073195;28;20515;-71
2022/05/09 08:39:26;;;;;;;5.50;2.88;;;;;;;-149.78;44.13;50033.38;5064039;28;20098;-71
2022/05/09 08:42:06;;;;;;;6.95;2.92;;;;;;;-149.78;46.45;50013.81;5064666;28;20045;-72
2022/05/09 08:44:51;;;;;;;5.80;2.80;;;;;;;-149.78;49.92;50039.25;5059598;28;20537;-73
2022/05/09 08:47:22;;;;;;;5.60;3.00;;;;;;;-149.78;52.57;50076.41;5064694;28;20052;-73
2022/05/09 08:50:17;;;;;;;7.82;2.88;;;;;;;-149.78;52.08;50088.13;5066129;28;20033;-73
2022/05/09 08:52:49;;;;;;;4.60;2.10;;;;;;;-149.78;51.90;50084.22;5071431;28;20025;-72
2022/05/09 08:55:38;;;;;;;7.47;2.33;;;;;;;-149.78;52.26;50076.41;5071457;28;20059;-74
2022/05/09 08:58:32;;;;;;;5.95;2.60;;;;;;;-149.78;52.05;50080.31;5070526;28;20104;-73
2022/05/09 09:01:03;;;;;;;7.18;2.58;;;;;;;-149.78;49.92;50037.28;5074411;28;20036;-72
2022/05/09 09:03:32;;;;;;;4.10;2.77;;;;;;;-149.78;50.29;50056.84;5091537;28;20097;-72
2022/05/09 09:06:05;;;;;;;4.65;2.60;;;;;;;-149.78;50.59;50084.22;5091362;28;20039;-72
2022/05/09 09:09:10;;;;;;;6.50;2.90;;;;;;;-149.78;47.72;50037.28;5092593;28;20094;-73
2022/05/09 09:12:06;;;;;;;8.38;2.92;;;;;;;-149.78;47.26;50033.38;5092658;28;20024;-73
2022/05/09 09:14:31;;;;;;;6.18;2.50;;;;;;;-149.78;46.80;50013.81;5092505;28;20028;-73
2022/05/09 09:16:57;;;;;;;6.63;2.97;;;;;;;-149.78;46.28;50017.72;5092792;28;20502;-72
2022/05/09 09:19:50;;;;;;;5.13;2.67;;;;;;;-149.78;44.15;50041.19;5092368;28;20119;-73
2022/05/09 09:22:40;;;;;;;7.55;2.75;;;;;;;-149.78;46.11;50017.72;5076453;28;20113;-73
2022/05/09 09:25:09;;;;;;;3.72;2.55;;;;;;;-149.78;46.67;50011.88;5055628;28;20055;-71
2022/05/09 09:28:09;;;;;;;6.82;2.85;;;;;;;-149.78;44.97;49962.97;5060273;28;20051;-72
2022/05/09 09:30:36;;;;;;;4.95;2.90;;;;;;;-149.78;42.55;49947.34;5063955;28;20025;-72
2022/05/09 09:33:09;;;;;;;3.53;2.47;;;;;;;-149.78;41.27;49974.72;5057742;28;20491;-72
2022/05/09 09:35:44;;;;;;;5.22;2.30;;;;;;;-149.78;40.12;49974.72;5059386;28;20411;-72
2022/05/09 09:38:23;;;;;;;3.65;2.20;;;;;;;-149.78;39.33;49908.22;5060750;28;20116;-72
2022/05/09 09:40:50;;;;;;;6.07;2.65;;;;;;;-149.78;39.13;49923.88;5063413;28;20373;-71
2022/05/09 09:43:18;;;;;;;7.93;2.55;;;;;;;-149.78;39.56;49912.13;5052092;28;20043;-71
2022/05/09 09:45:54;;;;;;;6.97;2.90;;;;;;;-149.78;37.77;49876.94;5071267;28;20032;-70
2022/05/09 09:48:22;;;;;;;4.78;2.42;;;;;;;-149.78;39.14;49896.50;5048617;28;20032;-70
2022/05/09 09:51:17;;;;;;;5.47;3.05;;;;;;;-149.78;42.40;49974.72;5066641;28;20029;-70
2022/05/09 09:53:49;;;;;;;5.20;2.30;;;;;;;-149.78;43.47;49998.19;5069859;28;20048;-71
2022/05/09 09:56:21;;;;;;;7.03;2.70;;;;;;;-149.78;42.50;50002.09;5071908;28;20041;-71
2022/05/09 09:58:52;;;;;;;8.00;2.78;;;;;;;-149.78;42.21;49998.19;5059324;28;20029;-73
2022/05/09 10:01:25;;;;;;;3.73;2.23;;;;;;;-149.78;42.63;49978.63;5060133;28;20063;-72
2022/05/09 10:04:14;;;;;;;3.75;2.10;;;;;;;-149.78;41.76;49972.75;5065146;28;20534;-72
2022/05/09 10:07:04;;;;;;;3.72;2.28;;;;;;;-149.78;40.60;49994.25;5050682;28;20029;-71
2022/05/09 10:09:40;;;;;;;4.97;2.25;;;;;;;-149.78;41.97;50006.00;5053554;28;20037;-71
2022/05/09 10:12:25;;;;;;;5.47;1.83;;;;;;;-149.78;43.86;50092.03;5038068;28;20113;-71
2022/05/09 10:14:52;;;;;;;5.43;1.90;;;;;;;-149.78;45.02;50045.09;5054703;28;20044;-72
2022/05/09 10:17:31;;;;;;;3.70;2.00;;;;;;;-149.78;46.13;50068.56;5062739;28;20045;-71
2022/05/09 10:19:59;;;;;;;5.60;2.10;;;;;;;-149.78;45.63;50025.56;5059876;28;20426;-71
2022/05/09 10:25:20;;;;;;;8.35;2.38;;;;;;;-149.78;46.35;50017.72;5056213;28;20116;-72
2022/05/09 10:28:00;;;;;;;3.47;1.98;;;;;;;-149.78;45.40;50002.09;5063337;28;20120;-72
2022/05/09 10:30:36;;;;;;;3.20;2.10;;;;;;;-149.78;43.79;50029.47;5068629;28;20048;-72
2022/05/09 10:33:11;;;;;;;5.10;1.88;;;;;;;-149.78;45.96;50035.34;5057563;28;20032;-72
2022/05/09 10:35:43;;;;;;;3.67;2.85;;;;;;;-149.78;47.00;50045.09;5062334;28;20039;-72
2022/05/09 10:38:24;;;;;;;5.80;2.35;;;;;;;-149.78;47.83;50002.09;5067766;28;20043;-73
2022/05/09 10:41:03;;;;;;;9.57;2.67;;;;;;;-149.78;48.51;50017.72;5058982;28;20036;-72
2022/05/09 10:43:31;;;;;;;4.88;2.40;;;;;;;-149.78;49.05;50031.41;5070822;28;20072;-72
2022/05/09 10:45:57;;;;;;;7.32;2.60;;;;;;;-149.78;49.39;50060.75;5054564;28;20040;-71
2022/05/09 10:48:22;;;;;;;4.55;2.83;;;;;;;-149.78;51.11;50041.19;5055120;28;20043;-70
2022/05/09 10:50:54;;;;;;;6.60;2.63;;;;;;;-149.78;50.35;50029.47;5053727;28;20164;-71
2022/05/09 10:53:44;;;;;;;5.20;2.33;;;;;;;-149.78;51.39;50041.19;5062300;28;20039;-72
2022/05/09 10:56:27;;;;;;;11.57;3.83;;;;;;;-149.78;51.87;50049.03;5068073;28;20557;-72
2022/05/09 10:59:11;;;;;;;10.05;3.63;;;;;;;-149.78;50.98;50015.78;5057511;28;20032;-72
2022/05/09 11:01:50;;;;;;;7.72;3.72;;;;;;;-149.78;49.52;50002.09;5066376;28;20060;-72
2022/05/09 11:04:17;;;;;;;7.82;3.70;;;;;;;-149.78;50.76;50009.91;5062732;28;20111;-73
2022/05/09 11:07:13;;;;;;;7.55;4.20;;;;;;;-149.78;51.21;50017.72;5067259;28;20047;-73
2022/05/09 11:09:54;;;;;;;12.20;4.40;;;;;;;-149.78;49.99;50017.72;5066029;28;20055;-74
2022/05/09 11:12:51;;;;;;;9.25;4.28;;;;;;;-149.78;50.98;50013.81;5059806;28;20667;-74
2022/05/09 11:15:32;;;;;;;6.15;3.75;;;;;;;-149.78;51.39;50006.00;5064976;28;20114;-76
2022/05/09 11:18:03;;;;;;;5.78;3.72;;;;;;;-149.78;49.13;49978.63;5066688;28;20607;-75
2022/05/09 11:20:44;;;;;;;9.25;4.80;;;;;;;-149.78;49.70;50002.09;5060952;28;20027;-74
2022/05/09 11:23:35;;;;;;;9.07;3.92;;;;;;;-149.78;51.33;49992.31;5059363;28;20033;-75
2022/05/09 11:26:23;;;;;;;10.55;4.07;;;;;;;-149.78;50.71;50009.91;5065723;28;20103;-72
2022/05/09 11:29:09;;;;;;;11.90;4.25;;;;;;;-149.78;51.69;49980.56;5059301;28;20048;-71
2022/05/09 11:31:55;;;;;;;8.77;4.80;;;;;;;-149.78;51.35;50033.38;5064387;28;20028;-73
2022/05/09 11:34:36;;;;;;;12.20;4.75;;;;;;;-149.78;52.51;50029.47;5057319;28;20029;-72